sensor_id;sensor_type;location;lat;lon;timestamp;temperature;humidity
17341;DHT22;8788;49.930;8.660;2023-07-20T00:01:53;21.80;90.10
17341;DHT22;8788;49.930;8.660;2023-07-20T00:04:20;21.80;90.10
17341;DHT22;8788;49.930;8.660;2023-07-20T00:06:47;21.70;90.00
17341;DHT22;8788;49.930;8.660;2023-07-20T00:09:15;21.60;90.10
17341;DHT22;8788;49.930;8.660;2023-07-20T00:11:49;21.60;90.20
17341;DHT22;8788;49.930;8.660;2023-07-20T00:14:17;21.60;90.40
17341;DHT22;8788;49.930;8.660;2023-07-20T00:16:44;21.60;90.50
17341;DHT22;8788;49.930;8.660;2023-07-20T00:19:12;21.60;90.50
17341;DHT22;8788;49.930;8.660;2023-07-20T00:21:39;21.60;90.60
17341;DHT22;8788;49.930;8.660;2023-07-20T00:24:08;21.50;90.70
17341;DHT22;8788;49.930;8.660;2023-07-20T00:26:35;21.50;90.80
17341;DHT22;8788;49.930;8.660;2023-07-20T00:29:04;21.50;90.80
17341;DHT22;8788;49.930;8.660;2023-07-20T00:31:31;21.40;90.90
17341;DHT22;8788;49.930;8.660;2023-07-20T00:33:58;21.30;90.90
17341;DHT22;8788;49.930;8.660;2023-07-20T00:36:25;21.30;91.00
17341;DHT22;8788;49.930;8.660;2023-07-20T00:38:52;21.20;91.00
17341;DHT22;8788;49.930;8.660;2023-07-20T00:41:19;21.10;91.10
17341;DHT22;8788;49.930;8.660;2023-07-20T00:43:46;21.10;91.10
17341;DHT22;8788;49.930;8.660;2023-07-20T00:46:15;21.10;91.20
17341;DHT22;8788;49.930;8.660;2023-07-20T00:48:42;21.10;91.20
17341;DHT22;8788;49.930;8.660;2023-07-20T00:51:10;21.10;91.30
17341;DHT22;8788;49.930;8.660;2023-07-20T00:53:38;21.10;91.30
17341;DHT22;8788;49.930;8.660;2023-07-20T00:56:06;21.10;91.30
17341;DHT22;8788;49.930;8.660;2023-07-20T00:58:35;21.10;91.40
17341;DHT22;8788;49.930;8.660;2023-07-20T01:01:02;21.10;91.50
17341;DHT22;8788;49.930;8.660;2023-07-20T01:03:30;21.10;91.50
17341;DHT22;8788;49.930;8.660;2023-07-20T01:06:04;21.10;91.70
17341;DHT22;8788;49.930;8.660;2023-07-20T01:08:43;21.10;91.60
17341;DHT22;8788;49.930;8.660;2023-07-20T01:11:16;21.10;91.70
17341;DHT22;8788;49.930;8.660;2023-07-20T01:13:44;21.00;91.80
17341;DHT22;8788;49.930;8.660;2023-07-20T01:16:11;20.90;91.90
17341;DHT22;8788;49.930;8.660;2023-07-20T01:18:40;20.90;92.10
17341;DHT22;8788;49.930;8.660;2023-07-20T01:21:09;20.80;92.30
17341;DHT22;8788;49.930;8.660;2023-07-20T01:27:25;20.70;92.40
17341;DHT22;8788;49.930;8.660;2023-07-20T01:30:25;20.60;92.60
17341;DHT22;8788;49.930;8.660;2023-07-20T01:32:55;20.60;92.80
17341;DHT22;8788;49.930;8.660;2023-07-20T01:35:28;20.50;92.80
17341;DHT22;8788;49.930;8.660;2023-07-20T01:37:56;20.40;93.00
17341;DHT22;8788;49.930;8.660;2023-07-20T01:40:26;20.40;93.20
17341;DHT22;8788;49.930;8.660;2023-07-20T01:42:53;20.30;93.40
17341;DHT22;8788;49.930;8.660;2023-07-20T01:45:21;20.20;93.60
17341;DHT22;8788;49.930;8.660;2023-07-20T01:47:48;20.00;93.80
17341;DHT22;8788;49.930;8.660;2023-07-20T01:50:16;19.90;94.10
17341;DHT22;8788;49.930;8.660;2023-07-20T01:52:44;19.90;94.40
17341;DHT22;8788;49.930;8.660;2023-07-20T01:55:11;19.80;94.60
17341;DHT22;8788;49.930;8.660;2023-07-20T01:57:38;19.80;94.90
17341;DHT22;8788;49.930;8.660;2023-07-20T02:00:06;19.70;95.10
17341;DHT22;8788;49.930;8.660;2023-07-20T02:02:41;19.70;95.30
17341;DHT22;8788;49.930;8.660;2023-07-20T02:05:09;19.70;95.50
17341;DHT22;8788;49.930;8.660;2023-07-20T02:07:38;19.60;95.50
17341;DHT22;8788;49.930;8.660;2023-07-20T02:10:06;19.40;95.70
17341;DHT22;8788;49.930;8.660;2023-07-20T02:12:34;19.30;96.00
17341;DHT22;8788;49.930;8.660;2023-07-20T02:15:02;19.20;96.10
17341;DHT22;8788;49.930;8.660;2023-07-20T02:17:29;19.10;96.30
17341;DHT22;8788;49.930;8.660;2023-07-20T02:19:56;18.90;97.00
17341;DHT22;8788;49.930;8.660;2023-07-20T02:22:24;18.90;97.00
17341;DHT22;8788;49.930;8.660;2023-07-20T02:24:52;18.80;97.40
17341;DHT22;8788;49.930;8.660;2023-07-20T02:27:19;18.80;97.60
17341;DHT22;8788;49.930;8.660;2023-07-20T02:29:46;18.70;97.70
17341;DHT22;8788;49.930;8.660;2023-07-20T02:32:13;18.70;97.90
17341;DHT22;8788;49.930;8.660;2023-07-20T02:34:41;18.60;98.20
17341;DHT22;8788;49.930;8.660;2023-07-20T02:37:08;18.60;98.50
17341;DHT22;8788;49.930;8.660;2023-07-20T02:39:38;18.50;98.70
17341;DHT22;8788;49.930;8.660;2023-07-20T02:42:07;18.50;99.00
17341;DHT22;8788;49.930;8.660;2023-07-20T02:44:34;18.50;99.20
17341;DHT22;8788;49.930;8.660;2023-07-20T02:47:01;18.50;99.40
17341;DHT22;8788;49.930;8.660;2023-07-20T02:49:28;18.60;99.70
17341;DHT22;8788;49.930;8.660;2023-07-20T02:51:55;18.60;99.80
17341;DHT22;8788;49.930;8.660;2023-07-20T02:54:22;18.60;99.90
17341;DHT22;8788;49.930;8.660;2023-07-20T02:56:49;18.50;99.90
17341;DHT22;8788;49.930;8.660;2023-07-20T02:59:18;18.50;99.90
17341;DHT22;8788;49.930;8.660;2023-07-20T03:01:45;18.50;99.90
17341;DHT22;8788;49.930;8.660;2023-07-20T03:04:12;18.50;99.90
17341;DHT22;8788;49.930;8.660;2023-07-20T03:06:39;18.40;99.90
17341;DHT22;8788;49.930;8.660;2023-07-20T03:09:06;18.30;99.90
17341;DHT22;8788;49.930;8.660;2023-07-20T03:11:35;18.20;99.90
17341;DHT22;8788;49.930;8.660;2023-07-20T03:14:02;18.20;99.90
17341;DHT22;8788;49.930;8.660;2023-07-20T03:16:30;18.10;99.90
17341;DHT22;8788;49.930;8.660;2023-07-20T03:19:00;18.00;99.90
17341;DHT22;8788;49.930;8.660;2023-07-20T03:21:28;18.00;99.90
17341;DHT22;8788;49.930;8.660;2023-07-20T03:23:55;17.90;99.90
17341;DHT22;8788;49.930;8.660;2023-07-20T03:26:23;17.80;99.90
17341;DHT22;8788;49.930;8.660;2023-07-20T03:28:50;17.80;99.90
17341;DHT22;8788;49.930;8.660;2023-07-20T03:31:17;17.70;99.90
17341;DHT22;8788;49.930;8.660;2023-07-20T03:33:46;17.70;99.90
17341;DHT22;8788;49.930;8.660;2023-07-20T03:36:13;17.70;99.90
17341;DHT22;8788;49.930;8.660;2023-07-20T03:38:40;17.70;99.90
17341;DHT22;8788;49.930;8.660;2023-07-20T03:41:07;17.60;99.90
17341;DHT22;8788;49.930;8.660;2023-07-20T03:43:35;17.70;99.90
17341;DHT22;8788;49.930;8.660;2023-07-20T03:46:02;17.60;99.90
17341;DHT22;8788;49.930;8.660;2023-07-20T03:48:32;17.60;99.90
17341;DHT22;8788;49.930;8.660;2023-07-20T03:51:00;17.60;99.90
17341;DHT22;8788;49.930;8.660;2023-07-20T03:53:28;17.60;99.90
17341;DHT22;8788;49.930;8.660;2023-07-20T03:55:55;17.60;99.90
17341;DHT22;8788;49.930;8.660;2023-07-20T03:58:22;17.60;99.90
17341;DHT22;8788;49.930;8.660;2023-07-20T04:00:50;17.60;99.90
17341;DHT22;8788;49.930;8.660;2023-07-20T04:03:18;17.60;99.90
17341;DHT22;8788;49.930;8.660;2023-07-20T04:05:46;17.60;99.90
17341;DHT22;8788;49.930;8.660;2023-07-20T04:08:14;17.60;99.90
17341;DHT22;8788;49.930;8.660;2023-07-20T04:10:43;17.60;99.90
17341;DHT22;8788;49.930;8.660;2023-07-20T04:13:11;17.50;99.90
17341;DHT22;8788;49.930;8.660;2023-07-20T04:15:38;17.50;99.90
17341;DHT22;8788;49.930;8.660;2023-07-20T04:18:05;17.50;99.90
17341;DHT22;8788;49.930;8.660;2023-07-20T04:20:32;17.50;99.90
17341;DHT22;8788;49.930;8.660;2023-07-20T04:22:59;17.50;99.90
17341;DHT22;8788;49.930;8.660;2023-07-20T04:25:28;17.50;99.90
17341;DHT22;8788;49.930;8.660;2023-07-20T04:27:56;17.50;99.90
17341;DHT22;8788;49.930;8.660;2023-07-20T04:30:23;17.60;99.90
17341;DHT22;8788;49.930;8.660;2023-07-20T04:32:50;17.70;99.90
17341;DHT22;8788;49.930;8.660;2023-07-20T04:35:21;17.70;99.90
17341;DHT22;8788;49.930;8.660;2023-07-20T04:38:08;17.80;99.90
17341;DHT22;8788;49.930;8.660;2023-07-20T04:40:37;17.90;99.90
17341;DHT22;8788;49.930;8.660;2023-07-20T04:43:04;18.00;99.90
17341;DHT22;8788;49.930;8.660;2023-07-20T04:45:31;18.10;99.90
17341;DHT22;8788;49.930;8.660;2023-07-20T04:47:58;18.10;99.90
17341;DHT22;8788;49.930;8.660;2023-07-20T04:50:26;18.10;99.90
17341;DHT22;8788;49.930;8.660;2023-07-20T04:52:53;18.00;99.90
17341;DHT22;8788;49.930;8.660;2023-07-20T04:55:21;18.00;99.90
17341;DHT22;8788;49.930;8.660;2023-07-20T04:57:50;18.10;99.90
17341;DHT22;8788;49.930;8.660;2023-07-20T05:00:17;18.20;99.90
17341;DHT22;8788;49.930;8.660;2023-07-20T05:02:45;18.30;99.90
17341;DHT22;8788;49.930;8.660;2023-07-20T05:05:13;18.40;99.90
17341;DHT22;8788;49.930;8.660;2023-07-20T05:07:40;18.40;99.90
17341;DHT22;8788;49.930;8.660;2023-07-20T05:10:07;18.50;99.90
17341;DHT22;8788;49.930;8.660;2023-07-20T05:12:35;18.50;99.90
17341;DHT22;8788;49.930;8.660;2023-07-20T05:15:04;18.60;99.90
17341;DHT22;8788;49.930;8.660;2023-07-20T05:17:31;18.60;99.90
17341;DHT22;8788;49.930;8.660;2023-07-20T05:19:58;18.60;99.90
17341;DHT22;8788;49.930;8.660;2023-07-20T05:22:25;18.60;99.90
17341;DHT22;8788;49.930;8.660;2023-07-20T05:24:53;18.70;99.90
17341;DHT22;8788;49.930;8.660;2023-07-20T05:27:20;18.80;99.90
17341;DHT22;8788;49.930;8.660;2023-07-20T05:29:47;18.90;99.90
17341;DHT22;8788;49.930;8.660;2023-07-20T05:32:15;19.00;99.90
17341;DHT22;8788;49.930;8.660;2023-07-20T05:34:42;19.00;99.90
17341;DHT22;8788;49.930;8.660;2023-07-20T05:37:09;19.00;99.90
17341;DHT22;8788;49.930;8.660;2023-07-20T05:39:36;19.10;99.90
17341;DHT22;8788;49.930;8.660;2023-07-20T05:42:04;19.10;99.90
17341;DHT22;8788;49.930;8.660;2023-07-20T05:44:31;19.30;99.90
17341;DHT22;8788;49.930;8.660;2023-07-20T05:46:58;19.30;99.90
17341;DHT22;8788;49.930;8.660;2023-07-20T05:49:27;19.30;99.90
17341;DHT22;8788;49.930;8.660;2023-07-20T05:51:54;19.30;99.90
17341;DHT22;8788;49.930;8.660;2023-07-20T05:54:23;19.40;99.90
17341;DHT22;8788;49.930;8.660;2023-07-20T05:56:50;19.50;99.90
17341;DHT22;8788;49.930;8.660;2023-07-20T05:59:17;19.60;99.90
17341;DHT22;8788;49.930;8.660;2023-07-20T06:01:45;19.60;99.90
17341;DHT22;8788;49.930;8.660;2023-07-20T06:04:14;19.70;99.90
17341;DHT22;8788;49.930;8.660;2023-07-20T06:06:42;19.80;99.90
17341;DHT22;8788;49.930;8.660;2023-07-20T06:09:09;19.70;99.90
17341;DHT22;8788;49.930;8.660;2023-07-20T06:11:37;19.70;99.90
17341;DHT22;8788;49.930;8.660;2023-07-20T06:14:05;19.60;99.90
17341;DHT22;8788;49.930;8.660;2023-07-20T06:16:32;19.50;99.90
17341;DHT22;8788;49.930;8.660;2023-07-20T06:19:00;19.60;99.90
17341;DHT22;8788;49.930;8.660;2023-07-20T06:21:27;19.60;99.90
17341;DHT22;8788;49.930;8.660;2023-07-20T06:23:55;19.80;99.90
17341;DHT22;8788;49.930;8.660;2023-07-20T06:26:22;19.90;99.90
17341;DHT22;8788;49.930;8.660;2023-07-20T06:28:49;19.90;99.90
17341;DHT22;8788;49.930;8.660;2023-07-20T06:31:16;19.90;99.90
17341;DHT22;8788;49.930;8.660;2023-07-20T06:33:44;20.00;99.90
17341;DHT22;8788;49.930;8.660;2023-07-20T06:36:11;20.00;99.90
17341;DHT22;8788;49.930;8.660;2023-07-20T06:38:38;20.00;99.90
17341;DHT22;8788;49.930;8.660;2023-07-20T06:41:06;20.10;99.90
17341;DHT22;8788;49.930;8.660;2023-07-20T06:43:33;20.10;99.90
17341;DHT22;8788;49.930;8.660;2023-07-20T06:46:01;20.30;99.90
17341;DHT22;8788;49.930;8.660;2023-07-20T06:48:28;20.40;99.90
17341;DHT22;8788;49.930;8.660;2023-07-20T06:50:55;20.40;99.90
17341;DHT22;8788;49.930;8.660;2023-07-20T06:53:22;20.30;99.90
17341;DHT22;8788;49.930;8.660;2023-07-20T06:55:49;20.30;99.90
17341;DHT22;8788;49.930;8.660;2023-07-20T06:58:17;20.40;99.90
17341;DHT22;8788;49.930;8.660;2023-07-20T07:00:44;20.30;99.90
17341;DHT22;8788;49.930;8.660;2023-07-20T07:03:11;20.50;99.90
17341;DHT22;8788;49.930;8.660;2023-07-20T07:05:38;20.60;99.90
17341;DHT22;8788;49.930;8.660;2023-07-20T07:08:06;20.50;99.90
17341;DHT22;8788;49.930;8.660;2023-07-20T07:10:34;20.60;99.90
17341;DHT22;8788;49.930;8.660;2023-07-20T07:13:02;20.70;99.90
17341;DHT22;8788;49.930;8.660;2023-07-20T07:15:30;20.70;99.90
17341;DHT22;8788;49.930;8.660;2023-07-20T07:17:57;20.70;99.90
17341;DHT22;8788;49.930;8.660;2023-07-20T07:20:25;20.70;99.90
17341;DHT22;8788;49.930;8.660;2023-07-20T07:22:53;20.70;99.90
17341;DHT22;8788;49.930;8.660;2023-07-20T07:25:21;20.90;99.90
17341;DHT22;8788;49.930;8.660;2023-07-20T07:27:48;21.00;99.90
17341;DHT22;8788;49.930;8.660;2023-07-20T07:30:15;21.10;99.90
17341;DHT22;8788;49.930;8.660;2023-07-20T07:32:44;21.30;99.90
17341;DHT22;8788;49.930;8.660;2023-07-20T07:35:11;21.20;99.90
17341;DHT22;8788;49.930;8.660;2023-07-20T07:37:38;21.20;99.90
17341;DHT22;8788;49.930;8.660;2023-07-20T07:40:07;21.30;99.90
17341;DHT22;8788;49.930;8.660;2023-07-20T07:42:34;21.50;99.90
17341;DHT22;8788;49.930;8.660;2023-07-20T07:45:02;21.60;99.90
17341;DHT22;8788;49.930;8.660;2023-07-20T07:47:29;21.80;99.90
17341;DHT22;8788;49.930;8.660;2023-07-20T07:49:57;21.70;99.90
17341;DHT22;8788;49.930;8.660;2023-07-20T07:52:24;21.60;99.90
17341;DHT22;8788;49.930;8.660;2023-07-20T07:54:51;21.60;99.60
17341;DHT22;8788;49.930;8.660;2023-07-20T07:57:18;21.40;99.60
17341;DHT22;8788;49.930;8.660;2023-07-20T07:59:45;21.50;99.90
17341;DHT22;8788;49.930;8.660;2023-07-20T08:02:13;21.60;99.70
17341;DHT22;8788;49.930;8.660;2023-07-20T08:04:40;21.70;99.60
17341;DHT22;8788;49.930;8.660;2023-07-20T08:07:08;21.70;99.30
17341;DHT22;8788;49.930;8.660;2023-07-20T08:09:35;21.80;99.00
17341;DHT22;8788;49.930;8.660;2023-07-20T08:12:03;21.80;99.20
17341;DHT22;8788;49.930;8.660;2023-07-20T08:14:31;21.80;99.20
17341;DHT22;8788;49.930;8.660;2023-07-20T08:16:58;21.80;99.20
17341;DHT22;8788;49.930;8.660;2023-07-20T08:19:25;21.90;99.10
17341;DHT22;8788;49.930;8.660;2023-07-20T08:21:52;22.10;99.10
17341;DHT22;8788;49.930;8.660;2023-07-20T08:24:20;22.20;98.90
17341;DHT22;8788;49.930;8.660;2023-07-20T08:26:47;22.20;98.80
17341;DHT22;8788;49.930;8.660;2023-07-20T08:29:14;22.10;98.60
17341;DHT22;8788;49.930;8.660;2023-07-20T08:31:41;22.10;98.70
17341;DHT22;8788;49.930;8.660;2023-07-20T08:34:08;22.00;98.50
17341;DHT22;8788;49.930;8.660;2023-07-20T08:36:36;22.00;98.70
17341;DHT22;8788;49.930;8.660;2023-07-20T08:39:03;22.30;98.70
17341;DHT22;8788;49.930;8.660;2023-07-20T08:41:32;22.40;98.40
17341;DHT22;8788;49.930;8.660;2023-07-20T08:43:59;22.40;98.00
17341;DHT22;8788;49.930;8.660;2023-07-20T08:46:28;22.40;97.90
17341;DHT22;8788;49.930;8.660;2023-07-20T08:48:56;22.50;97.90
17341;DHT22;8788;49.930;8.660;2023-07-20T08:51:25;22.60;97.70
17341;DHT22;8788;49.930;8.660;2023-07-20T08:53:52;22.70;97.40
17341;DHT22;8788;49.930;8.660;2023-07-20T08:56:20;22.80;97.10
17341;DHT22;8788;49.930;8.660;2023-07-20T08:58:49;22.90;97.00
17341;DHT22;8788;49.930;8.660;2023-07-20T09:01:17;23.10;96.90
17341;DHT22;8788;49.930;8.660;2023-07-20T09:03:45;23.30;96.70
17341;DHT22;8788;49.930;8.660;2023-07-20T09:06:12;23.70;96.70
17341;DHT22;8788;49.930;8.660;2023-07-20T09:08:40;23.90;95.90
17341;DHT22;8788;49.930;8.660;2023-07-20T09:11:07;23.90;95.30
17341;DHT22;8788;49.930;8.660;2023-07-20T09:13:35;24.00;94.70
17341;DHT22;8788;49.930;8.660;2023-07-20T09:16:03;23.90;94.50
17341;DHT22;8788;49.930;8.660;2023-07-20T09:18:32;23.80;94.20
17341;DHT22;8788;49.930;8.660;2023-07-20T09:21:02;23.70;94.40
17341;DHT22;8788;49.930;8.660;2023-07-20T09:23:33;23.70;94.30
17341;DHT22;8788;49.930;8.660;2023-07-20T09:26:00;23.60;94.20
17341;DHT22;8788;49.930;8.660;2023-07-20T09:28:27;23.60;94.20
17341;DHT22;8788;49.930;8.660;2023-07-20T09:30:55;23.70;94.20
17341;DHT22;8788;49.930;8.660;2023-07-20T09:33:25;23.90;94.10
17341;DHT22;8788;49.930;8.660;2023-07-20T09:35:52;24.00;93.70
17341;DHT22;8788;49.930;8.660;2023-07-20T09:38:18;24.00;93.60
17341;DHT22;8788;49.930;8.660;2023-07-20T09:40:46;24.00;92.60
17341;DHT22;8788;49.930;8.660;2023-07-20T09:43:15;23.90;92.80
17341;DHT22;8788;49.930;8.660;2023-07-20T09:45:43;23.90;93.10
17341;DHT22;8788;49.930;8.660;2023-07-20T09:48:10;23.90;93.00
17341;DHT22;8788;49.930;8.660;2023-07-20T09:50:43;23.90;92.10
17341;DHT22;8788;49.930;8.660;2023-07-20T09:53:17;23.90;92.40
17341;DHT22;8788;49.930;8.660;2023-07-20T09:55:45;24.10;92.50
17341;DHT22;8788;49.930;8.660;2023-07-20T09:58:13;24.20;92.20
17341;DHT22;8788;49.930;8.660;2023-07-20T10:00:42;24.20;91.80
17341;DHT22;8788;49.930;8.660;2023-07-20T10:03:11;24.00;91.30
17341;DHT22;8788;49.930;8.660;2023-07-20T10:05:46;24.00;91.50
17341;DHT22;8788;49.930;8.660;2023-07-20T10:08:16;24.10;91.00
17341;DHT22;8788;49.930;8.660;2023-07-20T10:10:44;24.20;90.60
17341;DHT22;8788;49.930;8.660;2023-07-20T10:13:17;24.40;90.80
17341;DHT22;8788;49.930;8.660;2023-07-20T10:15:47;24.60;90.80
17341;DHT22;8788;49.930;8.660;2023-07-20T10:18:21;24.80;90.00
17341;DHT22;8788;49.930;8.660;2023-07-20T10:20:51;24.70;89.30
17341;DHT22;8788;49.930;8.660;2023-07-20T10:23:18;24.60;89.30
17341;DHT22;8788;49.930;8.660;2023-07-20T10:25:46;24.60;88.10
17341;DHT22;8788;49.930;8.660;2023-07-20T10:28:13;24.50;87.70
17341;DHT22;8788;49.930;8.660;2023-07-20T10:30:41;24.50;87.40
17341;DHT22;8788;49.930;8.660;2023-07-20T10:33:09;24.40;87.50
17341;DHT22;8788;49.930;8.660;2023-07-20T10:35:53;24.50;87.90
17341;DHT22;8788;49.930;8.660;2023-07-20T10:38:20;24.40;87.40
17341;DHT22;8788;49.930;8.660;2023-07-20T10:41:04;24.40;87.40
17341;DHT22;8788;49.930;8.660;2023-07-20T10:43:42;24.40;87.70
17341;DHT22;8788;49.930;8.660;2023-07-20T10:46:11;24.30;87.50
17341;DHT22;8788;49.930;8.660;2023-07-20T10:48:59;24.30;87.20
17341;DHT22;8788;49.930;8.660;2023-07-20T10:51:28;24.20;86.40
17341;DHT22;8788;49.930;8.660;2023-07-20T10:53:55;24.00;85.90
17341;DHT22;8788;49.930;8.660;2023-07-20T10:56:27;24.00;86.30
17341;DHT22;8788;49.930;8.660;2023-07-20T10:58:58;23.90;86.30
17341;DHT22;8788;49.930;8.660;2023-07-20T11:01:28;24.00;87.00
17341;DHT22;8788;49.930;8.660;2023-07-20T11:03:58;24.10;86.80
17341;DHT22;8788;49.930;8.660;2023-07-20T11:06:32;24.20;85.90
17341;DHT22;8788;49.930;8.660;2023-07-20T11:09:05;24.10;85.70
17341;DHT22;8788;49.930;8.660;2023-07-20T11:11:34;24.10;85.80
17341;DHT22;8788;49.930;8.660;2023-07-20T11:14:03;24.00;86.00
17341;DHT22;8788;49.930;8.660;2023-07-20T11:16:35;24.10;86.10
17341;DHT22;8788;49.930;8.660;2023-07-20T11:19:03;24.10;86.40
17341;DHT22;8788;49.930;8.660;2023-07-20T11:21:36;24.40;86.60
17341;DHT22;8788;49.930;8.660;2023-07-20T11:24:05;24.70;86.00
17341;DHT22;8788;49.930;8.660;2023-07-20T11:26:43;25.00;86.20
17341;DHT22;8788;49.930;8.660;2023-07-20T11:29:10;25.20;84.80
17341;DHT22;8788;49.930;8.660;2023-07-20T11:31:38;25.20;84.10
17341;DHT22;8788;49.930;8.660;2023-07-20T11:34:06;25.50;84.40
17341;DHT22;8788;49.930;8.660;2023-07-20T11:36:35;25.70;83.80
17341;DHT22;8788;49.930;8.660;2023-07-20T11:39:02;25.60;82.20
17341;DHT22;8788;49.930;8.660;2023-07-20T11:41:31;25.70;82.50
17341;DHT22;8788;49.930;8.660;2023-07-20T11:43:58;25.90;82.40
17341;DHT22;8788;49.930;8.660;2023-07-20T11:46:26;26.10;81.50
17341;DHT22;8788;49.930;8.660;2023-07-20T11:49:00;26.00;79.90
17341;DHT22;8788;49.930;8.660;2023-07-20T11:51:28;25.80;79.80
17341;DHT22;8788;49.930;8.660;2023-07-20T11:53:57;25.90;80.50
17341;DHT22;8788;49.930;8.660;2023-07-20T11:56:24;26.00;79.70
17341;DHT22;8788;49.930;8.660;2023-07-20T11:58:55;26.10;78.30
17341;DHT22;8788;49.930;8.660;2023-07-20T12:01:25;26.10;78.10
17341;DHT22;8788;49.930;8.660;2023-07-20T12:03:55;26.20;78.00
17341;DHT22;8788;49.930;8.660;2023-07-20T12:06:23;26.10;77.50
17341;DHT22;8788;49.930;8.660;2023-07-20T12:08:53;26.20;77.90
17341;DHT22;8788;49.930;8.660;2023-07-20T12:11:33;26.40;77.00
17341;DHT22;8788;49.930;8.660;2023-07-20T12:14:00;26.30;75.70
17341;DHT22;8788;49.930;8.660;2023-07-20T12:16:28;26.30;75.30
17341;DHT22;8788;49.930;8.660;2023-07-20T12:18:59;26.40;76.10
17341;DHT22;8788;49.930;8.660;2023-07-20T12:21:27;26.50;76.00
17341;DHT22;8788;49.930;8.660;2023-07-20T12:23:56;26.40;75.60
17341;DHT22;8788;49.930;8.660;2023-07-20T12:26:23;26.40;76.60
17341;DHT22;8788;49.930;8.660;2023-07-20T12:28:52;26.40;76.10
17341;DHT22;8788;49.930;8.660;2023-07-20T12:31:19;26.40;76.40
17341;DHT22;8788;49.930;8.660;2023-07-20T12:33:47;26.60;76.70
17341;DHT22;8788;49.930;8.660;2023-07-20T12:36:14;26.80;76.00
17341;DHT22;8788;49.930;8.660;2023-07-20T12:38:41;26.70;75.80
17341;DHT22;8788;49.930;8.660;2023-07-20T12:41:10;26.60;75.50
17341;DHT22;8788;49.930;8.660;2023-07-20T12:43:38;26.70;75.80
17341;DHT22;8788;49.930;8.660;2023-07-20T12:46:07;26.80;74.50
17341;DHT22;8788;49.930;8.660;2023-07-20T12:48:35;26.60;74.10
17341;DHT22;8788;49.930;8.660;2023-07-20T12:51:03;26.60;74.40
17341;DHT22;8788;49.930;8.660;2023-07-20T12:53:31;26.50;74.10
17341;DHT22;8788;49.930;8.660;2023-07-20T12:55:59;26.40;74.00
17341;DHT22;8788;49.930;8.660;2023-07-20T12:58:26;26.30;74.40
17341;DHT22;8788;49.930;8.660;2023-07-20T13:00:54;26.20;74.40
17341;DHT22;8788;49.930;8.660;2023-07-20T13:03:23;26.10;74.60
17341;DHT22;8788;49.930;8.660;2023-07-20T13:05:50;26.10;75.00
17341;DHT22;8788;49.930;8.660;2023-07-20T13:08:17;26.10;74.00
17341;DHT22;8788;49.930;8.660;2023-07-20T13:10:45;26.00;73.80
17341;DHT22;8788;49.930;8.660;2023-07-20T13:13:12;26.10;74.10
17341;DHT22;8788;49.930;8.660;2023-07-20T13:15:43;26.20;73.20
17341;DHT22;8788;49.930;8.660;2023-07-20T13:18:12;26.50;73.70
17341;DHT22;8788;49.930;8.660;2023-07-20T13:20:40;26.80;73.00
17341;DHT22;8788;49.930;8.660;2023-07-20T13:23:07;27.00;71.90
17341;DHT22;8788;49.930;8.660;2023-07-20T13:25:34;27.00;72.00
17341;DHT22;8788;49.930;8.660;2023-07-20T13:28:02;27.10;70.80
17341;DHT22;8788;49.930;8.660;2023-07-20T13:30:29;27.10;70.80
17341;DHT22;8788;49.930;8.660;2023-07-20T13:32:56;27.20;70.90
17341;DHT22;8788;49.930;8.660;2023-07-20T13:35:23;27.20;70.20
17341;DHT22;8788;49.930;8.660;2023-07-20T13:37:51;27.00;70.00
17341;DHT22;8788;49.930;8.660;2023-07-20T13:40:18;26.80;70.80
17341;DHT22;8788;49.930;8.660;2023-07-20T13:42:45;27.00;71.20
17341;DHT22;8788;49.930;8.660;2023-07-20T13:45:12;27.10;71.00
17341;DHT22;8788;49.930;8.660;2023-07-20T13:47:39;26.90;70.60
17341;DHT22;8788;49.930;8.660;2023-07-20T13:50:07;26.90;71.20
17341;DHT22;8788;49.930;8.660;2023-07-20T13:52:34;27.00;70.70
17341;DHT22;8788;49.930;8.660;2023-07-20T13:55:04;26.90;69.60
17341;DHT22;8788;49.930;8.660;2023-07-20T13:57:31;26.90;69.70
17341;DHT22;8788;49.930;8.660;2023-07-20T13:59:58;27.00;69.60
17341;DHT22;8788;49.930;8.660;2023-07-20T14:02:37;27.00;69.40
17341;DHT22;8788;49.930;8.660;2023-07-20T14:05:05;26.90;69.10
17341;DHT22;8788;49.930;8.660;2023-07-20T14:07:32;27.20;69.50
17341;DHT22;8788;49.930;8.660;2023-07-20T14:09:59;27.70;69.60
17341;DHT22;8788;49.930;8.660;2023-07-20T14:12:28;28.20;68.70
17341;DHT22;8788;49.930;8.660;2023-07-20T14:14:55;28.20;67.10
17341;DHT22;8788;49.930;8.660;2023-07-20T14:17:22;28.20;67.90
17341;DHT22;8788;49.930;8.660;2023-07-20T14:19:49;28.30;67.80
17341;DHT22;8788;49.930;8.660;2023-07-20T14:22:17;28.50;67.70
17341;DHT22;8788;49.930;8.660;2023-07-20T14:24:44;28.80;67.40
17341;DHT22;8788;49.930;8.660;2023-07-20T14:27:11;28.80;66.90
17341;DHT22;8788;49.930;8.660;2023-07-20T14:29:39;28.80;66.70
17341;DHT22;8788;49.930;8.660;2023-07-20T14:32:07;28.60;65.20
17341;DHT22;8788;49.930;8.660;2023-07-20T14:34:34;28.50;65.60
17341;DHT22;8788;49.930;8.660;2023-07-20T14:37:02;28.60;66.00
17341;DHT22;8788;49.930;8.660;2023-07-20T14:39:30;28.80;65.40
17341;DHT22;8788;49.930;8.660;2023-07-20T14:41:57;28.90;65.40
17341;DHT22;8788;49.930;8.660;2023-07-20T14:44:24;29.00;64.70
17341;DHT22;8788;49.930;8.660;2023-07-20T14:46:53;29.20;64.70
17341;DHT22;8788;49.930;8.660;2023-07-20T14:49:21;29.20;62.90
17341;DHT22;8788;49.930;8.660;2023-07-20T14:51:48;29.20;63.70
17341;DHT22;8788;49.930;8.660;2023-07-20T14:54:15;29.40;63.60
17341;DHT22;8788;49.930;8.660;2023-07-20T14:56:50;29.10;61.60
17341;DHT22;8788;49.930;8.660;2023-07-20T14:59:18;28.60;61.70
17341;DHT22;8788;49.930;8.660;2023-07-20T15:01:46;28.30;62.40
17341;DHT22;8788;49.930;8.660;2023-07-20T15:04:14;28.30;62.80
17341;DHT22;8788;49.930;8.660;2023-07-20T15:06:42;28.10;62.30
17341;DHT22;8788;49.930;8.660;2023-07-20T15:09:09;27.80;62.30
17341;DHT22;8788;49.930;8.660;2023-07-20T15:11:36;27.70;63.30
17341;DHT22;8788;49.930;8.660;2023-07-20T15:14:03;27.90;64.20
17341;DHT22;8788;49.930;8.660;2023-07-20T15:16:30;28.00;64.20
17341;DHT22;8788;49.930;8.660;2023-07-20T15:18:57;28.00;63.80
17341;DHT22;8788;49.930;8.660;2023-07-20T15:21:26;27.70;63.20
17341;DHT22;8788;49.930;8.660;2023-07-20T15:23:56;27.50;63.40
17341;DHT22;8788;49.930;8.660;2023-07-20T15:26:23;27.30;63.40
17341;DHT22;8788;49.930;8.660;2023-07-20T15:28:50;27.10;64.20
17341;DHT22;8788;49.930;8.660;2023-07-20T15:31:18;27.10;64.90
17341;DHT22;8788;49.930;8.660;2023-07-20T15:33:45;27.20;65.60
17341;DHT22;8788;49.930;8.660;2023-07-20T15:36:12;27.20;65.70
17341;DHT22;8788;49.930;8.660;2023-07-20T15:38:40;27.20;65.20
17341;DHT22;8788;49.930;8.660;2023-07-20T15:41:07;27.20;65.30
17341;DHT22;8788;49.930;8.660;2023-07-20T15:43:34;27.20;65.50
17341;DHT22;8788;49.930;8.660;2023-07-20T15:46:05;27.20;65.80
17341;DHT22;8788;49.930;8.660;2023-07-20T15:48:39;27.20;66.10
17341;DHT22;8788;49.930;8.660;2023-07-20T15:51:06;27.20;65.70
17341;DHT22;8788;49.930;8.660;2023-07-20T15:53:33;27.20;65.70
17341;DHT22;8788;49.930;8.660;2023-07-20T15:56:01;27.10;65.10